createdAt,value
2023-03-06T00:00:01.167Z,97441.28
2023-03-06T00:02:27.493Z,97441.84
2023-03-06T00:04:53.833Z,97431.47
2023-03-06T00:07:20.227Z,97436.31
2023-03-06T00:09:46.536Z,97429.38
2023-03-06T00:12:12.872Z,97433.44
2023-03-06T00:14:39.200Z,97422.25
2023-03-06T00:17:05.512Z,97428.69
2023-03-06T00:19:31.836Z,97425.50
2023-03-06T00:21:58.200Z,97425.81
2023-03-06T00:24:24.628Z,97423.44
2023-03-06T00:26:50.995Z,97419.47
2023-03-06T00:29:17.319Z,97414.53
2023-03-06T00:31:46.571Z,97423.22
2023-03-06T00:34:12.897Z,97425.09
2023-03-06T00:36:39.254Z,97417.09
2023-03-06T00:39:05.854Z,97407.19
2023-03-06T00:41:32.465Z,97409.38
2023-03-06T00:43:58.767Z,97411.25
2023-03-06T00:46:25.103Z,97404.31
2023-03-06T00:48:51.403Z,97403.00
2023-03-06T00:51:19.678Z,97395.56
2023-03-06T00:53:45.998Z,97397.75
2023-03-06T00:56:12.441Z,97392.69
2023-03-06T00:58:38.755Z,97384.97
2023-03-06T01:01:05.151Z,97385.28
2023-03-06T01:03:31.495Z,97389.63
2023-03-06T01:05:57.839Z,97380.03
2023-03-06T01:08:24.161Z,97385.66
2023-03-06T01:10:50.489Z,97375.06
2023-03-06T01:13:16.788Z,97378.34
2023-03-06T01:15:43.113Z,97376.25
2023-03-06T01:18:09.424Z,97369.91
2023-03-06T01:20:35.772Z,97371.78
2023-03-06T01:23:02.083Z,97365.44
2023-03-06T01:25:28.433Z,97357.75
2023-03-06T01:27:54.751Z,97360.69
2023-03-06T01:30:21.060Z,97360.50
2023-03-06T01:32:48.112Z,97358.72
2023-03-06T01:35:14.439Z,97360.28
2023-03-06T01:37:40.780Z,97350.50
2023-03-06T01:40:07.327Z,97351.56
2023-03-06T01:42:33.641Z,97351.06
2023-03-06T01:45:19.904Z,97351.06
2023-03-06T01:47:46.314Z,97346.59
2023-03-06T01:50:12.960Z,97350.34
2023-03-06T01:52:40.367Z,97340.47
2023-03-06T01:55:10.571Z,97342.06
2023-03-06T01:57:38.698Z,97344.22
2023-03-06T02:00:07.281Z,97329.31
2023-03-06T02:02:33.656Z,97327.75
2023-03-06T02:05:00.228Z,97324.56
2023-03-06T02:07:26.558Z,97319.53
2023-03-06T02:09:52.939Z,97319.00
2023-03-06T02:12:19.454Z,97310.53
2023-03-06T02:14:46.260Z,97303.09
2023-03-06T02:17:12.869Z,97300.72
2023-03-06T02:19:45.532Z,97298.13
2023-03-06T02:22:11.873Z,97292.25
2023-03-06T02:24:57.764Z,97297.41
2023-03-06T02:27:24.348Z,97289.69
2023-03-06T02:29:50.663Z,97290.28
2023-03-06T02:32:17.028Z,97286.81
2023-03-06T02:34:50.454Z,97279.88
2023-03-06T02:37:16.777Z,97280.50
2023-03-06T02:39:44.414Z,97283.72
2023-03-06T02:42:10.748Z,97279.47
2023-03-06T02:44:37.046Z,97279.78
2023-03-06T02:47:03.801Z,97277.16
2023-03-06T02:49:30.108Z,97269.16
2023-03-06T02:51:56.437Z,97273.53
2023-03-06T02:54:22.757Z,97264.75
2023-03-06T02:56:49.088Z,97270.34
2023-03-06T02:59:15.402Z,97261.56
2023-03-06T03:01:41.787Z,97270.41
2023-03-06T03:04:08.177Z,97261.06
2023-03-06T03:06:34.591Z,97262.56
2023-03-06T03:09:00.905Z,97252.22
2023-03-06T03:11:27.241Z,97258.81
2023-03-06T03:13:53.568Z,97254.34
2023-03-06T03:16:19.978Z,97247.16
2023-03-06T03:18:47.892Z,97252.28
2023-03-06T03:21:14.578Z,97241.91
2023-03-06T03:23:40.894Z,97241.09
2023-03-06T03:26:08.117Z,97245.66
2023-03-06T03:28:34.439Z,97238.75
2023-03-06T03:31:04.265Z,97243.56
2023-03-06T03:33:30.590Z,97235.06
2023-03-06T03:35:57.877Z,97229.22
2023-03-06T03:38:24.494Z,97224.19
2023-03-06T03:40:50.821Z,97225.28
2023-03-06T03:43:17.240Z,97218.94
2023-03-06T03:45:43.572Z,97214.72
2023-03-06T03:48:09.886Z,97210.47
2023-03-06T03:50:36.193Z,97195.63
2023-03-06T03:53:02.505Z,97210.25
2023-03-06T03:55:28.870Z,97200.47
2023-03-06T03:57:55.196Z,97202.59
2023-03-06T04:00:21.518Z,97206.34
2023-03-06T04:02:47.827Z,97200.53
2023-03-06T04:05:14.799Z,97192.03
2023-03-06T04:07:41.683Z,97190.16
2023-03-06T04:10:08.944Z,97191.16
2023-03-06T04:12:35.664Z,97191.47
2023-03-06T04:15:02.365Z,97190.38
2023-03-06T04:17:28.753Z,97188.00
2023-03-06T04:19:55.060Z,97178.44
2023-03-06T04:22:21.407Z,97180.59
2023-03-06T04:24:49.832Z,97177.94
2023-03-06T04:27:16.171Z,97172.41
2023-03-06T04:29:42.492Z,97175.31
2023-03-06T04:32:08.879Z,97164.97
2023-03-06T04:34:35.217Z,97155.66
2023-03-06T04:37:02.607Z,97162.06
2023-03-06T04:39:28.934Z,97166.91
2023-03-06T04:41:55.250Z,97167.19
2023-03-06T04:44:21.610Z,97161.06
2023-03-06T04:46:47.934Z,97159.19
2023-03-06T04:49:14.248Z,97155.75
2023-03-06T04:51:40.572Z,97160.28
2023-03-06T04:54:06.930Z,97157.13
2023-03-06T04:56:34.496Z,97157.38
2023-03-06T04:59:00.860Z,97162.22
2023-03-06T05:01:27.163Z,97155.31
2023-03-06T05:03:53.492Z,97146.03
2023-03-06T05:06:19.809Z,97141.78
2023-03-06T05:08:46.174Z,97151.34
2023-03-06T05:11:12.493Z,97157.19
2023-03-06T05:13:38.808Z,97143.09
2023-03-06T05:16:05.901Z,97146.03
2023-03-06T05:18:32.576Z,97143.09
2023-03-06T05:20:59.959Z,97144.94
2023-03-06T05:23:26.881Z,97146.03
2023-03-06T05:25:53.238Z,97152.75
2023-03-06T05:28:19.560Z,97150.06
2023-03-06T05:30:46.185Z,97157.75
2023-03-06T05:33:12.508Z,97153.53
2023-03-06T05:35:38.842Z,97145.81
2023-03-06T05:38:05.205Z,97154.63
2023-03-06T05:40:31.734Z,97152.22
2023-03-06T05:42:58.064Z,97139.50
2023-03-06T05:45:24.367Z,97142.16
2023-03-06T05:47:50.700Z,97133.97
2023-03-06T05:50:17.015Z,97137.72
2023-03-06T05:52:43.349Z,97134.22
2023-03-06T05:55:10.564Z,97136.41
2023-03-06T05:57:36.915Z,97136.69
2023-03-06T06:00:03.902Z,97137.25
2023-03-06T06:02:30.314Z,97135.09
2023-03-06T06:04:56.631Z,97126.84
2023-03-06T06:07:23.006Z,97129.19
2023-03-06T06:09:49.309Z,97125.25
2023-03-06T06:12:15.637Z,97122.88
2023-03-06T06:14:41.963Z,97127.41
2023-03-06T06:17:08.611Z,97125.53
2023-03-06T06:19:34.906Z,97132.25
2023-03-06T06:22:02.664Z,97132.25
2023-03-06T06:24:28.985Z,97126.41
2023-03-06T06:26:55.578Z,97133.09
2023-03-06T06:29:21.923Z,97131.53
2023-03-06T06:31:48.234Z,97127.56
2023-03-06T06:34:14.551Z,97125.47
2023-03-06T06:36:41.023Z,97125.75
2023-03-06T06:39:07.702Z,97126.84
2023-03-06T06:41:53.005Z,97119.06
2023-03-06T06:44:20.309Z,97108.22
2023-03-06T06:49:33.246Z,97113.53
2023-03-06T06:51:59.570Z,97110.09
2023-03-06T06:54:25.909Z,97120.44
2023-03-06T06:56:52.268Z,97123.38
2023-03-06T06:59:18.646Z,97124.44
2023-03-06T07:01:45.037Z,97122.88
2023-03-06T07:04:14.662Z,97115.66
2023-03-06T07:06:41.263Z,97120.72
2023-03-06T07:09:07.594Z,97115.66
2023-03-06T07:11:33.928Z,97119.41
2023-03-06T07:14:01.750Z,97119.72
2023-03-06T07:16:28.078Z,97120.81
2023-03-06T07:18:54.896Z,97122.38
2023-03-06T07:21:21.286Z,97126.91
2023-03-06T07:23:47.645Z,97118.94
2023-03-06T07:26:14.151Z,97115.75
2023-03-06T07:28:52.019Z,97125.03
2023-03-06T07:31:19.398Z,97111.81
2023-03-06T07:33:45.994Z,97115.25
2023-03-06T07:36:13.863Z,97115.03
2023-03-06T07:38:40.318Z,97112.66
2023-03-06T07:41:09.535Z,97117.69
2023-03-06T07:43:35.855Z,97118.22
2023-03-06T07:46:02.209Z,97119.50
2023-03-06T07:48:28.536Z,97123.16
2023-03-06T07:50:55.757Z,97121.06
2023-03-06T07:53:22.672Z,97120.00
2023-03-06T07:55:49.021Z,97120.41
2023-03-06T07:58:15.679Z,97112.72
2023-03-06T08:00:44.376Z,97119.16
2023-03-06T08:03:13.857Z,97122.56
2023-03-06T08:05:40.212Z,97116.63
2023-03-06T08:08:06.583Z,97118.41
2023-03-06T08:10:32.927Z,97114.94
2023-03-06T08:12:59.264Z,97116.25
2023-03-06T08:15:25.920Z,97121.28
2023-03-06T08:17:52.859Z,97125.03
2023-03-06T08:20:19.242Z,97126.53
2023-03-06T08:22:45.603Z,97130.28
2023-03-06T08:25:13.369Z,97125.44
2023-03-06T08:27:39.958Z,97125.44
2023-03-06T08:30:07.006Z,97130.75
2023-03-06T08:32:34.938Z,97132.50
2023-03-06T08:35:01.851Z,97140.47
2023-03-06T08:37:28.194Z,97133.66
2023-03-06T08:39:54.548Z,97137.31
2023-03-06T08:42:20.880Z,97132.88
2023-03-06T08:44:47.199Z,97151.03
2023-03-06T08:47:13.585Z,97141.41
2023-03-06T08:49:39.898Z,97146.25
2023-03-06T08:52:06.974Z,97136.16
2023-03-06T08:54:34.424Z,97142.06
2023-03-06T08:57:00.735Z,97143.03
2023-03-06T08:59:27.044Z,97145.78
2023-03-06T09:01:53.431Z,97140.47
2023-03-06T09:04:19.839Z,97141.69
2023-03-06T09:06:46.412Z,97141.28
2023-03-06T09:09:12.885Z,97139.72
2023-03-06T09:11:39.197Z,97144.25
2023-03-06T09:14:05.710Z,97142.91
2023-03-06T09:16:32.159Z,97143.69
2023-03-06T09:18:58.771Z,97131.94
2023-03-06T09:21:25.465Z,97140.63
2023-03-06T09:23:51.819Z,97138.75
2023-03-06T09:26:18.593Z,97138.84
2023-03-06T09:28:45.003Z,97129.38
2023-03-06T09:31:15.615Z,97139.53
2023-03-06T09:33:42.176Z,97142.78
2023-03-06T09:36:08.714Z,97132.22
2023-03-06T09:38:35.048Z,97136.44
2023-03-06T09:41:03.486Z,97144.00
2023-03-06T09:43:31.359Z,97139.84
2023-03-06T09:45:58.151Z,97141.34
2023-03-06T09:48:50.932Z,97142.06
2023-03-06T09:51:17.273Z,97136.34
2023-03-06T09:53:46.780Z,97144.88
2023-03-06T09:56:16.564Z,97140.72
2023-03-06T09:58:44.173Z,97136.47
2023-03-06T10:01:10.402Z,97140.38
2023-03-06T10:03:39.200Z,97137.97
2023-03-06T10:06:13.045Z,97134.50
2023-03-06T10:08:45.408Z,97138.75
2023-03-06T10:11:11.871Z,97141.03
2023-03-06T10:13:43.211Z,97142.13
2023-03-06T10:16:09.513Z,97136.19
2023-03-06T10:18:38.390Z,97142.28
2023-03-06T10:21:18.686Z,97137.19
2023-03-06T10:23:55.305Z,97137.97
2023-03-06T10:26:25.531Z,97134.50
2023-03-06T10:28:51.831Z,97134.03
2023-03-06T10:31:25.010Z,97130.06
2023-03-06T10:33:51.335Z,97132.03
2023-03-06T10:36:18.312Z,97126.50
2023-03-06T10:38:44.765Z,97122.03
2023-03-06T10:41:10.999Z,97133.28
2023-03-06T10:43:45.038Z,97136.53
2023-03-06T10:46:12.279Z,97132.28
2023-03-06T10:48:40.962Z,97133.78
2023-03-06T10:51:18.481Z,97134.78
2023-03-06T10:53:57.153Z,97146.13
2023-03-06T10:56:26.447Z,97143.97
2023-03-06T10:59:09.175Z,97148.22
2023-03-06T11:01:35.567Z,97147.44
2023-03-06T11:04:21.163Z,97143.97
2023-03-06T11:06:47.527Z,97154.91
2023-03-06T11:09:19.958Z,97146.13
2023-03-06T11:11:46.297Z,97142.38
2023-03-06T11:14:19.449Z,97148.22
2023-03-06T11:16:52.574Z,97151.38
2023-03-06T11:19:24.027Z,97149.72
2023-03-06T11:22:04.056Z,97148.94
2023-03-06T11:24:37.419Z,97154.75
2023-03-06T11:27:09.129Z,97153.47
2023-03-06T11:29:42.294Z,97148.72
2023-03-06T11:32:21.177Z,97152.69
2023-03-06T11:34:51.284Z,97147.28
2023-03-06T11:37:33.842Z,97142.50
2023-03-06T11:40:06.568Z,97137.19
2023-03-06T11:42:34.914Z,97143.91
2023-03-06T11:45:09.959Z,97144.03
2023-03-06T11:47:50.085Z,97140.69
2023-03-06T11:50:32.140Z,97138.09
2023-03-06T11:53:02.241Z,97134.34
2023-03-06T11:55:32.593Z,97130.72
2023-03-06T11:58:12.229Z,97126.44
2023-03-06T12:00:42.265Z,97132.19
2023-03-06T12:03:14.307Z,97123.09
2023-03-06T12:05:47.285Z,97123.88
2023-03-06T12:08:17.400Z,97123.59
2023-03-06T12:10:54.693Z,97131.41
2023-03-06T12:13:41.231Z,97127.13
2023-03-06T12:16:07.652Z,97121.88
2023-03-06T12:18:42.960Z,97113.78
2023-03-06T12:21:17.676Z,97127.81
2023-03-06T12:24:23.248Z,97132.38
2023-03-06T12:26:52.077Z,97112.84
2023-03-06T12:29:21.193Z,97116.88
2023-03-06T12:31:56.018Z,97116.94
2023-03-06T12:34:41.186Z,97115.69
2023-03-06T12:37:16.558Z,97120.50
2023-03-06T12:39:48.949Z,97111.81
2023-03-06T12:42:24.495Z,97116.44
2023-03-06T12:45:09.338Z,97119.28
2023-03-06T12:47:38.391Z,97115.94
2023-03-06T12:50:07.557Z,97111.72
2023-03-06T12:52:33.887Z,97116.72
2023-03-06T12:55:00.632Z,97110.63
2023-03-06T12:57:26.960Z,97112.66
2023-03-06T12:59:53.428Z,97114.75
2023-03-06T13:02:38.988Z,97113.66
2023-03-06T13:05:22.574Z,97108.31
2023-03-06T13:08:07.832Z,97109.41
2023-03-06T13:10:34.450Z,97117.22
2023-03-06T13:13:05.177Z,97108.72
2023-03-06T13:15:41.838Z,97108.44
2023-03-06T13:18:23.680Z,97116.63
2023-03-06T13:20:50.638Z,97118.50
2023-03-06T13:23:46.396Z,97121.47
2023-03-06T13:26:25.172Z,97122.75
2023-03-06T13:28:52.111Z,97123.53
2023-03-06T13:31:36.800Z,97116.44
2023-03-06T13:34:03.791Z,97114.06
2023-03-06T13:36:32.953Z,97117.81
2023-03-06T13:39:03.592Z,97116.44
2023-03-06T13:41:32.890Z,97113.97
2023-03-06T13:43:59.859Z,97112.75
2023-03-06T13:46:35.115Z,97107.44
2023-03-06T13:49:07.490Z,97108.72
2023-03-06T13:52:00.205Z,97107.63
2023-03-06T13:54:38.440Z,97108.72
2023-03-06T13:57:04.705Z,97106.06
2023-03-06T13:59:43.242Z,97097.66
2023-03-06T14:02:21.577Z,97097.28
2023-03-06T14:04:59.989Z,97086.41
2023-03-06T14:07:27.537Z,97090.63
2023-03-06T14:12:23.582Z,97095.25
2023-03-06T14:14:51.231Z,97091.00
2023-03-06T14:17:24.307Z,97097.72
2023-03-06T14:19:50.615Z,97091.72
2023-03-06T14:22:17.569Z,97086.97
2023-03-06T14:24:45.921Z,97088.66
2023-03-06T14:27:18.904Z,97083.84
2023-03-06T14:29:48.490Z,97085.22
2023-03-06T14:32:16.139Z,97078.72
2023-03-06T14:34:45.425Z,97078.00
2023-03-06T14:37:21.350Z,97069.72
2023-03-06T14:39:47.816Z,97064.84
2023-03-06T14:42:18.113Z,97058.25
2023-03-06T14:44:44.794Z,97054.00
2023-03-06T14:47:12.521Z,97058.66
2023-03-06T14:49:38.831Z,97071.19
2023-03-06T14:52:05.178Z,97072.38
2023-03-06T14:54:32.276Z,97079.41
2023-03-06T14:57:02.471Z,97078.88
2023-03-06T14:59:29.418Z,97079.47
2023-03-06T15:02:22.225Z,97077.28
2023-03-06T15:04:51.863Z,97078.88
2023-03-06T15:07:22.500Z,97079.94
2023-03-06T15:09:49.391Z,97071.16
2023-03-06T15:12:19.692Z,97068.28
2023-03-06T15:15:10.365Z,97071.28
2023-03-06T15:17:40.488Z,97063.56
2023-03-06T15:20:10.034Z,97064.94
2023-03-06T15:22:37.766Z,97066.25
2023-03-06T15:25:07.551Z,97068.72
2023-03-06T15:27:33.868Z,97059.44
2023-03-06T15:30:29.716Z,97060.81
2023-03-06T15:33:09.186Z,97061.13
2023-03-06T15:35:37.960Z,97063.56
2023-03-06T15:38:20.189Z,97055.88
2023-03-06T15:40:53.566Z,97060.59
2023-03-06T15:43:19.888Z,97055.16
2023-03-06T15:45:46.256Z,97058.81
2023-03-06T15:48:14.576Z,97055.84
2023-03-06T15:50:40.924Z,97060.41
2023-03-06T15:53:07.292Z,97055.69
2023-03-06T15:55:33.615Z,97051.44
2023-03-06T15:58:00.617Z,97052.50
2023-03-06T16:00:28.647Z,97049.34
2023-03-06T16:02:55.557Z,97058.44
2023-03-06T16:05:21.898Z,97054.19
2023-03-06T16:07:48.273Z,97054.00
2023-03-06T16:10:15.173Z,97048.69
2023-03-06T16:12:46.733Z,97042.03
2023-03-06T16:15:21.021Z,97041.47
2023-03-06T16:17:47.415Z,97042.47
2023-03-06T16:20:14.616Z,97036.63
2023-03-06T16:22:41.320Z,97036.34
2023-03-06T16:25:08.697Z,97039.28
2023-03-06T16:27:35.174Z,97038.81
2023-03-06T16:30:01.485Z,97039.69
2023-03-06T16:32:28.876Z,97038.13
2023-03-06T16:34:55.235Z,97039.00
2023-03-06T16:37:21.575Z,97032.38
2023-03-06T16:39:48.105Z,97030.59
2023-03-06T16:42:16.905Z,97026.66
2023-03-06T16:44:43.228Z,97029.91
2023-03-06T16:47:10.264Z,97033.16
2023-03-06T16:49:36.611Z,97035.81
2023-03-06T16:52:04.558Z,97030.38
2023-03-06T16:54:30.877Z,97024.69
2023-03-06T16:56:57.220Z,97029.59
2023-03-06T16:59:24.876Z,97033.84
2023-03-06T17:01:51.485Z,97026.47
2023-03-06T17:04:17.796Z,97024.69
2023-03-06T17:06:44.383Z,97029.91
2023-03-06T17:09:10.926Z,97025.63
2023-03-06T17:11:42.051Z,97028.03
2023-03-06T17:14:08.360Z,97023.28
2023-03-06T17:16:36.911Z,97017.81
2023-03-06T17:19:03.258Z,97020.06
2023-03-06T17:21:30.301Z,97029.06
2023-03-06T17:23:57.191Z,97023.59
2023-03-06T17:26:24.222Z,97023.13
2023-03-06T17:28:50.961Z,97027.44
2023-03-06T17:31:18.368Z,97028.91
2023-03-06T17:33:45.288Z,97021.47
2023-03-06T17:36:11.743Z,97029.97
2023-03-06T17:38:38.080Z,97018.84
2023-03-06T17:41:04.768Z,97022.84
2023-03-06T17:43:31.344Z,97025.75
2023-03-06T17:45:57.651Z,97018.28
2023-03-06T17:48:23.969Z,97025.25
2023-03-06T17:50:56.180Z,97020.88
2023-03-06T17:53:23.031Z,97022.13
2023-03-06T17:55:49.332Z,97007.06
2023-03-06T17:58:15.707Z,97016.00
2023-03-06T18:00:42.055Z,97024.38
2023-03-06T18:03:09.289Z,97013.56
2023-03-06T18:05:35.888Z,97013.75
2023-03-06T18:08:02.197Z,97007.03
2023-03-06T18:10:28.524Z,97013.00
2023-03-06T18:12:56.497Z,97008.66
2023-03-06T18:15:22.879Z,96998.28
2023-03-06T18:17:49.273Z,96992.44
2023-03-06T18:20:15.645Z,96997.78
2023-03-06T18:22:42.047Z,96997.19
2023-03-06T18:25:08.586Z,96992.16
2023-03-06T18:27:34.945Z,96978.78
2023-03-06T18:30:01.334Z,96991.16
2023-03-06T18:32:27.740Z,96986.75
2023-03-06T18:34:55.594Z,96980.47
2023-03-06T18:37:22.105Z,96986.19
2023-03-06T18:39:48.485Z,96983.72
2023-03-06T18:42:14.816Z,96982.59
2023-03-06T18:44:41.243Z,96973.34
2023-03-06T18:47:07.595Z,96978.97
2023-03-06T18:49:33.925Z,96975.84
2023-03-06T18:52:00.242Z,96971.88
2023-03-06T18:54:28.521Z,96967.19
2023-03-06T18:56:54.852Z,96970.50
2023-03-06T18:59:21.208Z,96972.38
2023-03-06T19:01:47.659Z,96962.47
2023-03-06T19:04:13.985Z,96963.03
2023-03-06T19:06:40.393Z,96962.19
2023-03-06T19:09:06.713Z,96958.59
2023-03-06T19:11:33.090Z,96963.94
2023-03-06T19:13:59.423Z,96959.66
2023-03-06T19:16:26.608Z,96959.38
2023-03-06T19:18:55.121Z,96954.22
2023-03-06T19:21:22.105Z,96961.44
2023-03-06T19:23:48.683Z,96953.75
2023-03-06T19:26:15.211Z,96957.03
2023-03-06T19:28:41.695Z,96954.97
2023-03-06T19:31:15.833Z,96954.69
2023-03-06T19:33:42.229Z,96944.91
2023-03-06T19:36:09.427Z,96943.00
2023-03-06T19:38:35.788Z,96940.97
2023-03-06T19:41:02.142Z,96932.06
2023-03-06T19:43:28.785Z,96935.66
2023-03-06T19:45:55.604Z,96935.97
2023-03-06T19:48:22.837Z,96932.78
2023-03-06T19:50:49.208Z,96928.06
2023-03-06T19:53:15.915Z,96925.38
2023-03-06T19:55:42.475Z,96918.94
2023-03-06T19:58:08.829Z,96922.69
2023-03-06T20:00:35.316Z,96922.88
2023-03-06T20:03:01.669Z,96922.25
2023-03-06T20:05:27.977Z,96911.19
2023-03-06T20:07:54.303Z,96907.28
2023-03-06T20:10:20.633Z,96912.47
2023-03-06T20:12:47.191Z,96903.31
2023-03-06T20:15:13.530Z,96907.88
2023-03-06T20:17:40.619Z,96895.25
2023-03-06T20:20:08.182Z,96893.72
2023-03-06T20:22:34.487Z,96885.94
2023-03-06T20:25:00.810Z,96881.38
2023-03-06T20:27:27.116Z,96886.72
2023-03-06T20:29:53.450Z,96882.63
2023-03-06T20:32:19.847Z,96877.91
2023-03-06T20:34:46.185Z,96877.13
2023-03-06T20:37:12.515Z,96876.19
2023-03-06T20:39:39.097Z,96871.25
2023-03-06T20:42:05.488Z,96865.16
2023-03-06T20:44:31.843Z,96863.91
2023-03-06T20:46:58.243Z,96862.66
2023-03-06T20:49:27.060Z,96862.78
2023-03-06T20:51:53.672Z,96860.13
2023-03-06T20:54:20.053Z,96861.38
2023-03-06T20:56:47.117Z,96858.88
2023-03-06T20:59:13.444Z,96853.66
2023-03-06T21:01:41.480Z,96853.34
2023-03-06T21:04:08.820Z,96847.69
2023-03-06T21:06:35.146Z,96844.53
2023-03-06T21:09:01.554Z,96844.38
2023-03-06T21:11:27.929Z,96832.88
2023-03-06T21:13:54.297Z,96826.16
2023-03-06T21:16:21.026Z,96817.28
2023-03-06T21:18:47.391Z,96822.06
2023-03-06T21:21:14.583Z,96816.69
2023-03-06T21:23:40.890Z,96822.72
2023-03-06T21:26:07.284Z,96809.63
2023-03-06T21:28:33.602Z,96807.72
2023-03-06T21:31:00.258Z,96806.94
2023-03-06T21:33:26.596Z,96802.38
2023-03-06T21:35:52.999Z,96800.66
2023-03-06T21:38:19.366Z,96790.63
2023-03-06T21:40:45.677Z,96786.41
2023-03-06T21:43:12.508Z,96775.22
2023-03-06T21:45:42.739Z,96779.94
2023-03-06T21:48:09.277Z,96775.22
2023-03-06T21:50:35.955Z,96771.16
2023-03-06T21:53:02.489Z,96767.25
2023-03-06T21:55:29.114Z,96759.22
2023-03-06T21:57:55.459Z,96757.97
2023-03-06T22:00:23.604Z,96749.47
2023-03-06T22:02:50.133Z,96739.41
2023-03-06T22:05:16.540Z,96739.56
2023-03-06T22:07:42.859Z,96736.09
2023-03-06T22:10:11.861Z,96725.25
2023-03-06T22:12:38.503Z,96721.31
2023-03-06T22:15:05.188Z,96716.28
2023-03-06T22:17:31.688Z,96714.72
2023-03-06T22:19:57.999Z,96712.81
2023-03-06T22:22:24.391Z,96700.91
2023-03-06T22:24:50.705Z,96695.41
2023-03-06T22:27:17.049Z,96689.13
2023-03-06T22:29:43.368Z,96687.91
2023-03-06T22:32:09.994Z,96681.28
2023-03-06T22:34:36.397Z,96681.47
2023-03-06T22:37:02.699Z,96670.16
2023-03-06T22:39:29.237Z,96670.00
2023-03-06T22:41:55.702Z,96666.53
2023-03-06T22:44:22.208Z,96661.97
2023-03-06T22:46:48.710Z,96656.97
2023-03-06T22:49:16.753Z,96656.34
2023-03-06T22:51:43.183Z,96645.16
2023-03-06T22:54:09.676Z,96643.94
2023-03-06T22:56:36.279Z,96648.31
2023-03-06T22:59:02.617Z,96643.25
2023-03-06T23:01:29.630Z,96638.25
2023-03-06T23:03:56.753Z,96633.50
2023-03-06T23:06:23.993Z,96629.94
2023-03-06T23:08:51.193Z,96626.78
2023-03-06T23:11:19.401Z,96630.06
2023-03-06T23:13:45.905Z,96628.06
2023-03-06T23:16:12.222Z,96619.41
2023-03-06T23:18:38.667Z,96614.38
2023-03-06T23:21:08.733Z,96614.69
2023-03-06T23:23:35.558Z,96611.09
2023-03-06T23:26:01.864Z,96599.94
2023-03-06T23:28:28.250Z,96596.34
2023-03-06T23:30:54.884Z,96592.88
2023-03-06T23:33:21.253Z,96586.59
2023-03-06T23:35:47.634Z,96594.28
2023-03-06T23:38:13.970Z,96571.03
2023-03-06T23:40:40.286Z,96581.41
2023-03-06T23:43:06.605Z,96569.47
2023-03-06T23:45:32.968Z,96559.44
2023-03-06T23:47:59.292Z,96557.38
2023-03-06T23:50:26.135Z,96551.44
2023-03-06T23:52:53.050Z,96544.81
2023-03-06T23:55:19.406Z,96545.75
2023-03-06T23:57:45.736Z,96544.34
